sensor_id;sensor_type;location;lat;lon;timestamp;P1;durP1;ratioP1;P2;durP2;ratioP2
37065;SDS011;22981;43.080;25.550;2023-12-28T00:00:17;32.23;;;24.02;;
37065;SDS011;22981;43.080;25.550;2023-12-28T00:02:46;36.35;;;26.07;;
37065;SDS011;22981;43.080;25.550;2023-12-28T00:05:13;41.77;;;27.70;;
37065;SDS011;22981;43.080;25.550;2023-12-28T00:07:41;41.53;;;28.85;;
37065;SDS011;22981;43.080;25.550;2023-12-28T00:10:09;40.60;;;27.75;;
37065;SDS011;22981;43.080;25.550;2023-12-28T00:12:37;41.05;;;27.73;;
37065;SDS011;22981;43.080;25.550;2023-12-28T00:15:04;38.35;;;27.32;;
37065;SDS011;22981;43.080;25.550;2023-12-28T00:17:32;43.42;;;28.73;;
37065;SDS011;22981;43.080;25.550;2023-12-28T00:20:00;37.55;;;24.63;;
37065;SDS011;22981;43.080;25.550;2023-12-28T00:22:27;26.40;;;18.75;;
37065;SDS011;22981;43.080;25.550;2023-12-28T00:24:55;27.75;;;19.23;;
37065;SDS011;22981;43.080;25.550;2023-12-28T00:27:23;31.25;;;23.07;;
37065;SDS011;22981;43.080;25.550;2023-12-28T00:29:50;40.45;;;27.07;;
37065;SDS011;22981;43.080;25.550;2023-12-28T00:32:18;38.60;;;26.48;;
37065;SDS011;22981;43.080;25.550;2023-12-28T00:34:45;38.67;;;27.25;;
37065;SDS011;22981;43.080;25.550;2023-12-28T00:37:13;42.58;;;29.12;;
37065;SDS011;22981;43.080;25.550;2023-12-28T00:39:40;41.35;;;27.48;;
37065;SDS011;22981;43.080;25.550;2023-12-28T00:42:08;31.75;;;21.33;;
37065;SDS011;22981;43.080;25.550;2023-12-28T00:44:36;27.77;;;19.37;;
37065;SDS011;22981;43.080;25.550;2023-12-28T00:47:03;27.02;;;17.92;;
37065;SDS011;22981;43.080;25.550;2023-12-28T00:49:32;26.05;;;17.48;;
37065;SDS011;22981;43.080;25.550;2023-12-28T00:51:59;27.25;;;17.35;;
37065;SDS011;22981;43.080;25.550;2023-12-28T00:54:27;23.55;;;17.12;;
37065;SDS011;22981;43.080;25.550;2023-12-28T00:56:54;25.48;;;16.32;;
37065;SDS011;22981;43.080;25.550;2023-12-28T00:59:22;25.45;;;15.83;;
37065;SDS011;22981;43.080;25.550;2023-12-28T01:01:49;27.32;;;17.52;;
37065;SDS011;22981;43.080;25.550;2023-12-28T01:04:17;26.68;;;18.48;;
37065;SDS011;22981;43.080;25.550;2023-12-28T01:06:45;27.98;;;20.12;;
37065;SDS011;22981;43.080;25.550;2023-12-28T01:09:12;31.10;;;21.95;;
37065;SDS011;22981;43.080;25.550;2023-12-28T01:11:40;31.17;;;21.42;;
37065;SDS011;22981;43.080;25.550;2023-12-28T01:14:07;30.57;;;20.95;;
37065;SDS011;22981;43.080;25.550;2023-12-28T01:16:35;32.00;;;21.15;;
37065;SDS011;22981;43.080;25.550;2023-12-28T01:19:05;27.15;;;18.80;;
37065;SDS011;22981;43.080;25.550;2023-12-28T01:21:32;28.10;;;19.55;;
37065;SDS011;22981;43.080;25.550;2023-12-28T01:24:00;36.38;;;23.07;;
37065;SDS011;22981;43.080;25.550;2023-12-28T01:26:27;29.65;;;20.40;;
37065;SDS011;22981;43.080;25.550;2023-12-28T01:28:55;25.32;;;16.60;;
37065;SDS011;22981;43.080;25.550;2023-12-28T01:31:23;26.00;;;18.15;;
37065;SDS011;22981;43.080;25.550;2023-12-28T01:33:50;27.00;;;18.92;;
37065;SDS011;22981;43.080;25.550;2023-12-28T01:36:18;33.90;;;23.02;;
37065;SDS011;22981;43.080;25.550;2023-12-28T01:38:47;32.17;;;20.30;;
37065;SDS011;22981;43.080;25.550;2023-12-28T01:41:14;37.23;;;19.85;;
37065;SDS011;22981;43.080;25.550;2023-12-28T01:43:42;24.32;;;17.32;;
37065;SDS011;22981;43.080;25.550;2023-12-28T01:46:14;28.07;;;17.87;;
37065;SDS011;22981;43.080;25.550;2023-12-28T01:48:46;28.57;;;20.12;;
37065;SDS011;22981;43.080;25.550;2023-12-28T01:51:16;43.80;;;27.00;;
37065;SDS011;22981;43.080;25.550;2023-12-28T01:53:44;34.10;;;22.85;;
37065;SDS011;22981;43.080;25.550;2023-12-28T01:56:13;34.00;;;22.45;;
37065;SDS011;22981;43.080;25.550;2023-12-28T01:58:42;25.70;;;18.70;;
37065;SDS011;22981;43.080;25.550;2023-12-28T02:01:11;24.57;;;17.65;;
37065;SDS011;22981;43.080;25.550;2023-12-28T02:03:38;24.70;;;17.23;;
37065;SDS011;22981;43.080;25.550;2023-12-28T02:06:11;23.95;;;16.73;;
37065;SDS011;22981;43.080;25.550;2023-12-28T02:08:35;23.73;;;16.60;;
37065;SDS011;22981;43.080;25.550;2023-12-28T02:11:02;25.48;;;16.73;;
37065;SDS011;22981;43.080;25.550;2023-12-28T02:13:30;25.95;;;18.15;;
37065;SDS011;22981;43.080;25.550;2023-12-28T02:15:59;28.42;;;19.37;;
37065;SDS011;22981;43.080;25.550;2023-12-28T02:18:47;24.92;;;18.00;;
37065;SDS011;22981;43.080;25.550;2023-12-28T02:21:15;24.23;;;16.05;;
37065;SDS011;22981;43.080;25.550;2023-12-28T02:23:50;25.82;;;17.77;;
37065;SDS011;22981;43.080;25.550;2023-12-28T02:26:17;32.93;;;21.75;;
37065;SDS011;22981;43.080;25.550;2023-12-28T02:28:45;33.63;;;24.02;;
37065;SDS011;22981;43.080;25.550;2023-12-28T02:31:14;33.58;;;23.67;;
37065;SDS011;22981;43.080;25.550;2023-12-28T02:33:50;34.23;;;24.55;;
37065;SDS011;22981;43.080;25.550;2023-12-28T02:36:20;31.40;;;23.02;;
37065;SDS011;22981;43.080;25.550;2023-12-28T02:38:50;31.05;;;22.07;;
37065;SDS011;22981;43.080;25.550;2023-12-28T02:41:20;29.15;;;20.97;;
37065;SDS011;22981;43.080;25.550;2023-12-28T02:43:48;33.35;;;21.87;;
37065;SDS011;22981;43.080;25.550;2023-12-28T02:46:17;29.35;;;21.60;;
37065;SDS011;22981;43.080;25.550;2023-12-28T02:48:44;32.17;;;22.30;;
37065;SDS011;22981;43.080;25.550;2023-12-28T02:51:12;32.00;;;22.73;;
37065;SDS011;22981;43.080;25.550;2023-12-28T02:53:41;36.55;;;24.70;;
37065;SDS011;22981;43.080;25.550;2023-12-28T02:56:09;43.00;;;28.05;;
37065;SDS011;22981;43.080;25.550;2023-12-28T02:58:37;68.97;;;45.92;;
37065;SDS011;22981;43.080;25.550;2023-12-28T03:01:04;72.10;;;46.68;;
37065;SDS011;22981;43.080;25.550;2023-12-28T03:03:32;63.00;;;38.42;;
37065;SDS011;22981;43.080;25.550;2023-12-28T03:05:59;57.53;;;35.25;;
37065;SDS011;22981;43.080;25.550;2023-12-28T03:08:27;54.77;;;33.40;;
37065;SDS011;22981;43.080;25.550;2023-12-28T03:10:54;54.60;;;30.27;;
37065;SDS011;22981;43.080;25.550;2023-12-28T03:13:22;44.53;;;26.85;;
37065;SDS011;22981;43.080;25.550;2023-12-28T03:15:49;34.65;;;22.35;;
37065;SDS011;22981;43.080;25.550;2023-12-28T03:18:17;40.73;;;25.70;;
37065;SDS011;22981;43.080;25.550;2023-12-28T03:20:44;54.35;;;30.75;;
37065;SDS011;22981;43.080;25.550;2023-12-28T03:23:12;51.45;;;31.48;;
37065;SDS011;22981;43.080;25.550;2023-12-28T03:25:40;54.00;;;33.23;;
37065;SDS011;22981;43.080;25.550;2023-12-28T03:28:07;54.65;;;31.93;;
37065;SDS011;22981;43.080;25.550;2023-12-28T03:30:35;37.08;;;24.07;;
37065;SDS011;22981;43.080;25.550;2023-12-28T03:33:02;38.15;;;23.00;;
37065;SDS011;22981;43.080;25.550;2023-12-28T03:35:30;32.90;;;21.23;;
37065;SDS011;22981;43.080;25.550;2023-12-28T03:37:57;26.57;;;18.32;;
37065;SDS011;22981;43.080;25.550;2023-12-28T03:40:26;24.77;;;17.95;;
37065;SDS011;22981;43.080;25.550;2023-12-28T03:42:53;26.77;;;19.02;;
37065;SDS011;22981;43.080;25.550;2023-12-28T03:45:21;29.72;;;20.27;;
37065;SDS011;22981;43.080;25.550;2023-12-28T03:47:49;30.82;;;20.70;;
37065;SDS011;22981;43.080;25.550;2023-12-28T03:50:16;31.80;;;20.00;;
37065;SDS011;22981;43.080;25.550;2023-12-28T03:52:44;30.43;;;20.50;;
37065;SDS011;22981;43.080;25.550;2023-12-28T03:55:12;31.48;;;21.68;;
37065;SDS011;22981;43.080;25.550;2023-12-28T03:57:39;33.45;;;21.80;;
37065;SDS011;22981;43.080;25.550;2023-12-28T04:00:08;32.55;;;23.02;;
37065;SDS011;22981;43.080;25.550;2023-12-28T04:02:35;31.52;;;20.70;;
37065;SDS011;22981;43.080;25.550;2023-12-28T04:05:03;25.37;;;17.77;;
37065;SDS011;22981;43.080;25.550;2023-12-28T04:07:32;20.97;;;14.55;;
37065;SDS011;22981;43.080;25.550;2023-12-28T04:10:00;22.73;;;15.28;;
37065;SDS011;22981;43.080;25.550;2023-12-28T04:12:27;24.85;;;15.75;;
37065;SDS011;22981;43.080;25.550;2023-12-28T04:14:55;24.52;;;16.10;;
37065;SDS011;22981;43.080;25.550;2023-12-28T04:17:22;24.77;;;16.02;;
37065;SDS011;22981;43.080;25.550;2023-12-28T04:19:50;26.77;;;16.12;;
37065;SDS011;22981;43.080;25.550;2023-12-28T04:22:18;23.67;;;17.42;;
37065;SDS011;22981;43.080;25.550;2023-12-28T04:24:45;22.98;;;16.15;;
37065;SDS011;22981;43.080;25.550;2023-12-28T04:27:13;26.30;;;17.82;;
37065;SDS011;22981;43.080;25.550;2023-12-28T04:29:41;26.70;;;19.50;;
37065;SDS011;22981;43.080;25.550;2023-12-28T04:32:08;26.85;;;18.20;;
37065;SDS011;22981;43.080;25.550;2023-12-28T04:34:36;26.37;;;18.77;;
37065;SDS011;22981;43.080;25.550;2023-12-28T04:37:03;31.48;;;18.48;;
37065;SDS011;22981;43.080;25.550;2023-12-28T04:39:31;31.05;;;20.00;;
37065;SDS011;22981;43.080;25.550;2023-12-28T04:41:58;27.00;;;18.17;;
37065;SDS011;22981;43.080;25.550;2023-12-28T04:44:26;30.15;;;21.20;;
37065;SDS011;22981;43.080;25.550;2023-12-28T04:46:53;29.60;;;19.65;;
37065;SDS011;22981;43.080;25.550;2023-12-28T04:49:21;29.30;;;19.30;;
37065;SDS011;22981;43.080;25.550;2023-12-28T04:51:49;25.55;;;18.27;;
37065;SDS011;22981;43.080;25.550;2023-12-28T04:54:16;29.35;;;20.92;;
37065;SDS011;22981;43.080;25.550;2023-12-28T04:56:44;38.58;;;24.35;;
37065;SDS011;22981;43.080;25.550;2023-12-28T04:59:12;30.40;;;21.17;;
37065;SDS011;22981;43.080;25.550;2023-12-28T05:01:45;37.90;;;23.30;;
37065;SDS011;22981;43.080;25.550;2023-12-28T05:04:13;37.75;;;25.23;;
37065;SDS011;22981;43.080;25.550;2023-12-28T05:06:40;127.40;;;62.23;;
37065;SDS011;22981;43.080;25.550;2023-12-28T05:09:08;69.45;;;39.75;;
37065;SDS011;22981;43.080;25.550;2023-12-28T05:11:35;77.97;;;44.08;;
37065;SDS011;22981;43.080;25.550;2023-12-28T05:14:03;68.15;;;38.58;;
37065;SDS011;22981;43.080;25.550;2023-12-28T05:16:31;60.00;;;32.50;;
37065;SDS011;22981;43.080;25.550;2023-12-28T05:18:58;42.62;;;26.55;;
37065;SDS011;22981;43.080;25.550;2023-12-28T05:21:27;32.53;;;22.20;;
37065;SDS011;22981;43.080;25.550;2023-12-28T05:23:54;69.32;;;38.80;;
37065;SDS011;22981;43.080;25.550;2023-12-28T05:26:22;40.45;;;26.60;;
37065;SDS011;22981;43.080;25.550;2023-12-28T05:28:49;48.52;;;27.35;;
37065;SDS011;22981;43.080;25.550;2023-12-28T05:31:17;46.80;;;28.85;;
37065;SDS011;22981;43.080;25.550;2023-12-28T05:33:45;48.52;;;30.72;;
37065;SDS011;22981;43.080;25.550;2023-12-28T05:36:12;46.88;;;31.70;;
37065;SDS011;22981;43.080;25.550;2023-12-28T05:38:40;45.38;;;30.27;;
37065;SDS011;22981;43.080;25.550;2023-12-28T05:41:09;47.30;;;30.57;;
37065;SDS011;22981;43.080;25.550;2023-12-28T05:43:38;44.03;;;30.23;;
37065;SDS011;22981;43.080;25.550;2023-12-28T05:46:06;49.03;;;31.97;;
37065;SDS011;22981;43.080;25.550;2023-12-28T05:48:33;47.33;;;32.10;;
37065;SDS011;22981;43.080;25.550;2023-12-28T05:51:01;48.52;;;30.50;;
37065;SDS011;22981;43.080;25.550;2023-12-28T05:53:29;43.20;;;29.32;;
37065;SDS011;22981;43.080;25.550;2023-12-28T05:55:56;39.35;;;27.80;;
37065;SDS011;22981;43.080;25.550;2023-12-28T05:58:25;41.98;;;27.75;;
37065;SDS011;22981;43.080;25.550;2023-12-28T06:00:53;37.25;;;26.65;;
37065;SDS011;22981;43.080;25.550;2023-12-28T06:03:20;37.95;;;25.60;;
37065;SDS011;22981;43.080;25.550;2023-12-28T06:05:50;32.28;;;23.50;;
37065;SDS011;22981;43.080;25.550;2023-12-28T06:08:17;34.83;;;22.07;;
37065;SDS011;22981;43.080;25.550;2023-12-28T06:10:45;44.65;;;28.90;;
37065;SDS011;22981;43.080;25.550;2023-12-28T06:13:12;42.98;;;28.73;;
37065;SDS011;22981;43.080;25.550;2023-12-28T06:15:40;65.35;;;41.92;;
37065;SDS011;22981;43.080;25.550;2023-12-28T06:18:09;68.90;;;46.53;;
37065;SDS011;22981;43.080;25.550;2023-12-28T06:20:36;70.32;;;48.70;;
37065;SDS011;22981;43.080;25.550;2023-12-28T06:23:06;63.75;;;45.50;;
37065;SDS011;22981;43.080;25.550;2023-12-28T06:25:34;55.38;;;36.40;;
37065;SDS011;22981;43.080;25.550;2023-12-28T06:28:02;52.08;;;34.92;;
37065;SDS011;22981;43.080;25.550;2023-12-28T06:30:29;56.30;;;36.38;;
37065;SDS011;22981;43.080;25.550;2023-12-28T06:32:57;53.05;;;36.40;;
37065;SDS011;22981;43.080;25.550;2023-12-28T06:35:24;76.10;;;38.73;;
37065;SDS011;22981;43.080;25.550;2023-12-28T06:37:52;53.70;;;36.35;;
37065;SDS011;22981;43.080;25.550;2023-12-28T06:40:19;56.15;;;36.45;;
37065;SDS011;22981;43.080;25.550;2023-12-28T06:42:47;55.65;;;35.23;;
37065;SDS011;22981;43.080;25.550;2023-12-28T06:45:15;56.28;;;34.92;;
37065;SDS011;22981;43.080;25.550;2023-12-28T06:47:42;51.63;;;31.77;;
37065;SDS011;22981;43.080;25.550;2023-12-28T06:50:10;53.05;;;34.25;;
37065;SDS011;22981;43.080;25.550;2023-12-28T06:52:37;61.95;;;42.67;;
37065;SDS011;22981;43.080;25.550;2023-12-28T06:55:05;60.75;;;40.67;;
37065;SDS011;22981;43.080;25.550;2023-12-28T06:57:32;59.63;;;40.48;;
37065;SDS011;22981;43.080;25.550;2023-12-28T07:00:00;58.65;;;40.83;;
37065;SDS011;22981;43.080;25.550;2023-12-28T07:02:28;64.15;;;41.10;;
37065;SDS011;22981;43.080;25.550;2023-12-28T07:04:56;52.55;;;37.10;;
37065;SDS011;22981;43.080;25.550;2023-12-28T07:07:23;54.90;;;37.20;;
37065;SDS011;22981;43.080;25.550;2023-12-28T07:09:51;77.82;;;46.85;;
37065;SDS011;22981;43.080;25.550;2023-12-28T07:12:19;73.80;;;44.15;;
37065;SDS011;22981;43.080;25.550;2023-12-28T07:14:46;53.20;;;35.17;;
37065;SDS011;22981;43.080;25.550;2023-12-28T07:17:14;45.52;;;31.40;;
37065;SDS011;22981;43.080;25.550;2023-12-28T07:19:43;48.85;;;32.17;;
37065;SDS011;22981;43.080;25.550;2023-12-28T07:22:10;53.20;;;34.78;;
37065;SDS011;22981;43.080;25.550;2023-12-28T07:24:38;52.73;;;34.83;;
37065;SDS011;22981;43.080;25.550;2023-12-28T07:27:05;44.63;;;30.20;;
37065;SDS011;22981;43.080;25.550;2023-12-28T07:29:33;43.10;;;32.03;;
37065;SDS011;22981;43.080;25.550;2023-12-28T07:32:01;39.40;;;28.60;;
37065;SDS011;22981;43.080;25.550;2023-12-28T07:34:29;37.48;;;26.80;;
37065;SDS011;22981;43.080;25.550;2023-12-28T07:36:57;32.83;;;24.43;;
37065;SDS011;22981;43.080;25.550;2023-12-28T07:39:24;33.95;;;24.27;;
37065;SDS011;22981;43.080;25.550;2023-12-28T07:41:52;33.33;;;21.93;;
37065;SDS011;22981;43.080;25.550;2023-12-28T07:44:19;31.80;;;22.20;;
37065;SDS011;22981;43.080;25.550;2023-12-28T07:46:47;29.57;;;21.07;;
37065;SDS011;22981;43.080;25.550;2023-12-28T07:49:15;26.15;;;19.15;;
37065;SDS011;22981;43.080;25.550;2023-12-28T07:51:43;24.67;;;19.77;;
37065;SDS011;22981;43.080;25.550;2023-12-28T07:54:11;29.82;;;22.02;;
37065;SDS011;22981;43.080;25.550;2023-12-28T07:56:38;34.50;;;21.33;;
37065;SDS011;22981;43.080;25.550;2023-12-28T07:59:06;29.95;;;20.90;;
37065;SDS011;22981;43.080;25.550;2023-12-28T08:01:35;27.75;;;19.85;;
37065;SDS011;22981;43.080;25.550;2023-12-28T08:04:02;19.23;;;16.02;;
37065;SDS011;22981;43.080;25.550;2023-12-28T08:06:30;23.18;;;13.55;;
37065;SDS011;22981;43.080;25.550;2023-12-28T08:08:58;15.95;;;11.33;;
37065;SDS011;22981;43.080;25.550;2023-12-28T08:11:29;17.32;;;11.50;;
37065;SDS011;22981;43.080;25.550;2023-12-28T08:13:57;17.02;;;10.80;;
37065;SDS011;22981;43.080;25.550;2023-12-28T08:16:24;14.58;;;10.68;;
37065;SDS011;22981;43.080;25.550;2023-12-28T08:18:52;12.55;;;8.35;;
37065;SDS011;22981;43.080;25.550;2023-12-28T08:21:19;9.75;;;7.40;;
37065;SDS011;22981;43.080;25.550;2023-12-28T08:23:47;10.98;;;8.43;;
37065;SDS011;22981;43.080;25.550;2023-12-28T08:26:15;10.53;;;8.48;;
37065;SDS011;22981;43.080;25.550;2023-12-28T08:28:42;10.08;;;8.05;;
37065;SDS011;22981;43.080;25.550;2023-12-28T08:31:10;12.13;;;9.10;;
37065;SDS011;22981;43.080;25.550;2023-12-28T08:33:38;13.68;;;9.75;;
37065;SDS011;22981;43.080;25.550;2023-12-28T08:36:06;14.55;;;9.53;;
37065;SDS011;22981;43.080;25.550;2023-12-28T08:38:35;13.75;;;9.45;;
37065;SDS011;22981;43.080;25.550;2023-12-28T08:41:02;12.18;;;8.70;;
37065;SDS011;22981;43.080;25.550;2023-12-28T08:43:31;11.95;;;8.13;;
37065;SDS011;22981;43.080;25.550;2023-12-28T08:45:59;12.82;;;8.13;;
37065;SDS011;22981;43.080;25.550;2023-12-28T08:48:26;13.98;;;8.70;;
37065;SDS011;22981;43.080;25.550;2023-12-28T08:50:54;13.83;;;9.90;;
37065;SDS011;22981;43.080;25.550;2023-12-28T08:53:22;14.28;;;10.23;;
37065;SDS011;22981;43.080;25.550;2023-12-28T08:55:49;17.40;;;10.43;;
37065;SDS011;22981;43.080;25.550;2023-12-28T08:58:17;13.20;;;10.15;;
37065;SDS011;22981;43.080;25.550;2023-12-28T09:00:45;12.60;;;9.53;;
37065;SDS011;22981;43.080;25.550;2023-12-28T09:03:14;15.38;;;11.08;;
37065;SDS011;22981;43.080;25.550;2023-12-28T09:05:41;17.75;;;11.88;;
37065;SDS011;22981;43.080;25.550;2023-12-28T09:08:09;17.67;;;10.72;;
37065;SDS011;22981;43.080;25.550;2023-12-28T09:10:37;24.72;;;15.70;;
37065;SDS011;22981;43.080;25.550;2023-12-28T09:13:06;34.18;;;25.12;;
37065;SDS011;22981;43.080;25.550;2023-12-28T09:15:34;30.43;;;21.90;;
37065;SDS011;22981;43.080;25.550;2023-12-28T09:18:01;35.38;;;26.70;;
37065;SDS011;22981;43.080;25.550;2023-12-28T09:20:29;39.53;;;26.45;;
37065;SDS011;22981;43.080;25.550;2023-12-28T09:22:57;38.60;;;26.48;;
37065;SDS011;22981;43.080;25.550;2023-12-28T09:25:25;35.17;;;26.73;;
37065;SDS011;22981;43.080;25.550;2023-12-28T09:27:52;46.68;;;31.00;;
37065;SDS011;22981;43.080;25.550;2023-12-28T09:30:20;40.17;;;28.90;;
37065;SDS011;22981;43.080;25.550;2023-12-28T09:32:48;40.35;;;30.65;;
37065;SDS011;22981;43.080;25.550;2023-12-28T09:35:15;41.20;;;31.00;;
37065;SDS011;22981;43.080;25.550;2023-12-28T09:37:43;44.33;;;32.75;;
37065;SDS011;22981;43.080;25.550;2023-12-28T09:40:13;49.75;;;32.40;;
37065;SDS011;22981;43.080;25.550;2023-12-28T09:42:53;44.53;;;30.12;;
37065;SDS011;22981;43.080;25.550;2023-12-28T09:45:17;35.30;;;26.60;;
37065;SDS011;22981;43.080;25.550;2023-12-28T09:47:46;32.93;;;24.37;;
37065;SDS011;22981;43.080;25.550;2023-12-28T09:50:15;24.07;;;17.60;;
37065;SDS011;22981;43.080;25.550;2023-12-28T09:52:45;18.52;;;13.03;;
37065;SDS011;22981;43.080;25.550;2023-12-28T09:55:12;14.93;;;11.78;;
37065;SDS011;22981;43.080;25.550;2023-12-28T09:57:40;13.65;;;10.60;;
37065;SDS011;22981;43.080;25.550;2023-12-28T10:00:09;16.55;;;10.55;;
37065;SDS011;22981;43.080;25.550;2023-12-28T10:02:44;13.18;;;10.58;;
37065;SDS011;22981;43.080;25.550;2023-12-28T10:05:14;15.13;;;10.00;;
37065;SDS011;22981;43.080;25.550;2023-12-28T10:07:45;11.25;;;8.55;;
37065;SDS011;22981;43.080;25.550;2023-12-28T10:10:14;11.63;;;9.38;;
37065;SDS011;22981;43.080;25.550;2023-12-28T10:12:42;13.95;;;10.00;;
37065;SDS011;22981;43.080;25.550;2023-12-28T10:15:09;10.25;;;9.20;;
37065;SDS011;22981;43.080;25.550;2023-12-28T10:17:37;12.15;;;10.15;;
37065;SDS011;22981;43.080;25.550;2023-12-28T10:20:06;13.68;;;10.10;;
37065;SDS011;22981;43.080;25.550;2023-12-28T10:22:36;12.30;;;9.40;;
37065;SDS011;22981;43.080;25.550;2023-12-28T10:25:04;9.73;;;7.45;;
37065;SDS011;22981;43.080;25.550;2023-12-28T10:27:32;11.50;;;9.53;;
37065;SDS011;22981;43.080;25.550;2023-12-28T10:30:01;12.55;;;9.33;;
37065;SDS011;22981;43.080;25.550;2023-12-28T10:32:29;12.30;;;9.00;;
37065;SDS011;22981;43.080;25.550;2023-12-28T10:34:56;13.38;;;9.80;;
37065;SDS011;22981;43.080;25.550;2023-12-28T10:37:24;11.65;;;9.38;;
37065;SDS011;22981;43.080;25.550;2023-12-28T10:39:53;16.07;;;12.13;;
37065;SDS011;22981;43.080;25.550;2023-12-28T10:45:02;12.78;;;10.03;;
37065;SDS011;22981;43.080;25.550;2023-12-28T10:47:31;13.75;;;10.48;;
37065;SDS011;22981;43.080;25.550;2023-12-28T10:50:03;15.23;;;11.00;;
37065;SDS011;22981;43.080;25.550;2023-12-28T10:52:32;13.18;;;10.70;;
37065;SDS011;22981;43.080;25.550;2023-12-28T10:57:59;13.83;;;10.80;;
37065;SDS011;22981;43.080;25.550;2023-12-28T11:00:46;12.30;;;9.23;;
37065;SDS011;22981;43.080;25.550;2023-12-28T11:03:15;12.03;;;8.03;;
37065;SDS011;22981;43.080;25.550;2023-12-28T11:05:45;11.60;;;9.53;;
37065;SDS011;22981;43.080;25.550;2023-12-28T11:08:13;11.18;;;8.25;;
37065;SDS011;22981;43.080;25.550;2023-12-28T11:10:43;14.33;;;9.00;;
37065;SDS011;22981;43.080;25.550;2023-12-28T11:13:11;12.88;;;7.33;;
37065;SDS011;22981;43.080;25.550;2023-12-28T11:15:41;11.30;;;7.58;;
37065;SDS011;22981;43.080;25.550;2023-12-28T11:18:08;9.38;;;7.15;;
37065;SDS011;22981;43.080;25.550;2023-12-28T11:20:37;8.18;;;5.90;;
37065;SDS011;22981;43.080;25.550;2023-12-28T11:23:05;11.30;;;6.12;;
37065;SDS011;22981;43.080;25.550;2023-12-28T11:25:34;6.92;;;5.42;;
37065;SDS011;22981;43.080;25.550;2023-12-28T11:28:08;7.03;;;5.00;;
37065;SDS011;22981;43.080;25.550;2023-12-28T11:30:37;11.30;;;5.67;;
37065;SDS011;22981;43.080;25.550;2023-12-28T11:33:07;8.95;;;6.35;;
37065;SDS011;22981;43.080;25.550;2023-12-28T11:35:36;7.12;;;5.35;;
37065;SDS011;22981;43.080;25.550;2023-12-28T11:38:06;7.45;;;5.35;;
37065;SDS011;22981;43.080;25.550;2023-12-28T11:40:39;9.40;;;6.05;;
37065;SDS011;22981;43.080;25.550;2023-12-28T11:43:20;7.20;;;5.78;;
37065;SDS011;22981;43.080;25.550;2023-12-28T11:45:54;8.55;;;5.75;;
37065;SDS011;22981;43.080;25.550;2023-12-28T11:48:27;9.18;;;6.50;;
37065;SDS011;22981;43.080;25.550;2023-12-28T11:50:56;8.00;;;6.00;;
37065;SDS011;22981;43.080;25.550;2023-12-28T11:53:25;7.87;;;6.25;;
37065;SDS011;22981;43.080;25.550;2023-12-28T11:55:58;9.08;;;6.10;;
37065;SDS011;22981;43.080;25.550;2023-12-28T11:58:28;9.28;;;5.40;;
37065;SDS011;22981;43.080;25.550;2023-12-28T12:00:56;8.48;;;4.95;;
37065;SDS011;22981;43.080;25.550;2023-12-28T12:03:24;7.28;;;5.08;;
37065;SDS011;22981;43.080;25.550;2023-12-28T12:05:52;6.35;;;4.20;;
37065;SDS011;22981;43.080;25.550;2023-12-28T12:08:23;5.33;;;3.85;;
37065;SDS011;22981;43.080;25.550;2023-12-28T12:11:09;5.50;;;3.02;;
37065;SDS011;22981;43.080;25.550;2023-12-28T12:13:30;4.10;;;3.22;;
37065;SDS011;22981;43.080;25.550;2023-12-28T12:15:58;6.85;;;3.12;;
37065;SDS011;22981;43.080;25.550;2023-12-28T12:18:28;3.75;;;2.37;;
37065;SDS011;22981;43.080;25.550;2023-12-28T12:20:56;3.98;;;2.55;;
37065;SDS011;22981;43.080;25.550;2023-12-28T12:23:24;6.20;;;2.45;;
37065;SDS011;22981;43.080;25.550;2023-12-28T12:25:52;3.65;;;2.30;;
37065;SDS011;22981;43.080;25.550;2023-12-28T12:28:19;3.08;;;2.10;;
37065;SDS011;22981;43.080;25.550;2023-12-28T12:30:51;4.92;;;3.12;;
37065;SDS011;22981;43.080;25.550;2023-12-28T12:33:22;4.42;;;2.90;;
37065;SDS011;22981;43.080;25.550;2023-12-28T12:35:51;6.10;;;3.08;;
37065;SDS011;22981;43.080;25.550;2023-12-28T12:38:19;11.63;;;6.53;;
37065;SDS011;22981;43.080;25.550;2023-12-28T12:40:50;14.90;;;9.18;;
37065;SDS011;22981;43.080;25.550;2023-12-28T12:43:18;14.60;;;8.75;;
37065;SDS011;22981;43.080;25.550;2023-12-28T12:45:46;17.75;;;11.38;;
37065;SDS011;22981;43.080;25.550;2023-12-28T12:48:14;16.23;;;9.68;;
37065;SDS011;22981;43.080;25.550;2023-12-28T12:50:42;16.42;;;11.70;;
37065;SDS011;22981;43.080;25.550;2023-12-28T12:53:10;20.60;;;13.60;;
37065;SDS011;22981;43.080;25.550;2023-12-28T12:55:38;11.85;;;9.13;;
37065;SDS011;22981;43.080;25.550;2023-12-28T12:58:10;15.68;;;9.98;;
37065;SDS011;22981;43.080;25.550;2023-12-28T13:00:39;17.73;;;11.22;;
37065;SDS011;22981;43.080;25.550;2023-12-28T13:03:09;17.35;;;10.70;;
37065;SDS011;22981;43.080;25.550;2023-12-28T13:05:37;12.13;;;9.13;;
37065;SDS011;22981;43.080;25.550;2023-12-28T13:08:06;16.65;;;9.55;;
37065;SDS011;22981;43.080;25.550;2023-12-28T13:10:34;19.75;;;10.63;;
37065;SDS011;22981;43.080;25.550;2023-12-28T13:13:01;17.27;;;10.05;;
37065;SDS011;22981;43.080;25.550;2023-12-28T13:15:30;19.30;;;10.85;;
37065;SDS011;22981;43.080;25.550;2023-12-28T13:17:58;17.17;;;10.20;;
37065;SDS011;22981;43.080;25.550;2023-12-28T13:20:26;13.83;;;7.70;;
37065;SDS011;22981;43.080;25.550;2023-12-28T13:22:53;10.60;;;6.85;;
37065;SDS011;22981;43.080;25.550;2023-12-28T13:25:21;11.08;;;6.65;;
37065;SDS011;22981;43.080;25.550;2023-12-28T13:27:48;10.18;;;6.65;;
37065;SDS011;22981;43.080;25.550;2023-12-28T13:30:16;9.88;;;6.25;;
37065;SDS011;22981;43.080;25.550;2023-12-28T13:32:44;9.38;;;6.30;;
37065;SDS011;22981;43.080;25.550;2023-12-28T13:35:12;9.55;;;6.35;;
37065;SDS011;22981;43.080;25.550;2023-12-28T13:37:39;10.10;;;7.55;;
37065;SDS011;22981;43.080;25.550;2023-12-28T13:40:07;13.30;;;8.93;;
37065;SDS011;22981;43.080;25.550;2023-12-28T13:42:35;14.07;;;8.88;;
37065;SDS011;22981;43.080;25.550;2023-12-28T13:45:03;14.00;;;8.45;;
37065;SDS011;22981;43.080;25.550;2023-12-28T13:47:31;18.73;;;11.80;;
37065;SDS011;22981;43.080;25.550;2023-12-28T13:49:59;19.92;;;11.63;;
37065;SDS011;22981;43.080;25.550;2023-12-28T13:52:26;18.90;;;11.38;;
37065;SDS011;22981;43.080;25.550;2023-12-28T13:54:54;22.17;;;11.65;;
37065;SDS011;22981;43.080;25.550;2023-12-28T13:57:22;18.98;;;11.03;;
37065;SDS011;22981;43.080;25.550;2023-12-28T13:59:49;14.83;;;9.03;;
37065;SDS011;22981;43.080;25.550;2023-12-28T14:02:17;16.82;;;11.15;;
37065;SDS011;22981;43.080;25.550;2023-12-28T14:04:44;28.52;;;21.37;;
37065;SDS011;22981;43.080;25.550;2023-12-28T14:07:12;21.75;;;12.82;;
37065;SDS011;22981;43.080;25.550;2023-12-28T14:09:39;22.25;;;11.88;;
37065;SDS011;22981;43.080;25.550;2023-12-28T14:12:07;19.30;;;10.13;;
37065;SDS011;22981;43.080;25.550;2023-12-28T14:14:35;15.08;;;9.58;;
37065;SDS011;22981;43.080;25.550;2023-12-28T14:17:02;18.82;;;11.03;;
37065;SDS011;22981;43.080;25.550;2023-12-28T14:19:30;18.67;;;10.40;;
37065;SDS011;22981;43.080;25.550;2023-12-28T14:21:58;19.37;;;11.57;;
37065;SDS011;22981;43.080;25.550;2023-12-28T14:24:27;18.87;;;11.93;;